createdAt,value
2022-09-01T00:00:46.692Z,99284.38
2022-09-01T00:01:49.311Z,99288.73
2022-09-01T00:02:51.956Z,99288.31
2022-09-01T00:03:54.665Z,99282.75
2022-09-01T00:04:57.463Z,99278.23
2022-09-01T00:05:59.988Z,99283.98
2022-09-01T00:07:02.600Z,99278.23
2022-09-01T00:08:05.580Z,99278.44
2022-09-01T00:09:08.244Z,99279.26
2022-09-01T00:10:11.631Z,99277.80
2022-09-01T00:11:14.202Z,99280.91
2022-09-01T00:12:16.824Z,99276.60
2022-09-01T00:13:19.436Z,99273.12
2022-09-01T00:14:30.249Z,99274.55
2022-09-01T00:15:26.603Z,99284.43
2022-09-01T00:16:30.407Z,99281.95
2022-09-01T00:17:33.106Z,99282.58
2022-09-01T00:18:35.708Z,99290.38
2022-09-01T00:19:38.321Z,99285.25
2022-09-01T00:20:41.495Z,99284.65
2022-09-01T00:21:44.474Z,99292.05
2022-09-01T00:22:47.120Z,99298.00
2022-09-01T00:23:49.675Z,99294.30
2022-09-01T00:24:52.299Z,99297.17
2022-09-01T00:25:55.005Z,99301.08
2022-09-01T00:26:58.102Z,99298.84
2022-09-01T00:28:00.691Z,99303.80
2022-09-01T00:29:03.260Z,99306.05
2022-09-01T00:30:06.344Z,99297.42
2022-09-01T00:31:09.076Z,99293.73
2022-09-01T00:32:11.733Z,99300.50
2022-09-01T00:33:14.303Z,99301.14
2022-09-01T00:34:17.644Z,99299.70
2022-09-01T00:35:20.313Z,99287.16
2022-09-01T00:36:24.823Z,99289.60
2022-09-01T00:37:27.582Z,99297.63
2022-09-01T00:38:30.252Z,99298.05
2022-09-01T00:39:32.824Z,99293.72
2022-09-01T00:40:35.835Z,99298.84
2022-09-01T00:41:38.524Z,99303.82
2022-09-01T00:42:41.299Z,99301.33
2022-09-01T00:43:43.835Z,99300.12
2022-09-01T00:44:46.737Z,99305.87
2022-09-01T00:45:49.377Z,99300.31
2022-09-01T00:46:55.236Z,99296.39
2022-09-01T00:47:57.245Z,99298.87
2022-09-01T00:48:59.915Z,99297.64
2022-09-01T00:50:03.226Z,99298.66
2022-09-01T00:51:05.868Z,99295.76
2022-09-01T00:52:08.595Z,99303.78
2022-09-01T00:53:11.203Z,99306.27
2022-09-01T00:54:13.773Z,99303.59
2022-09-01T00:55:16.442Z,99299.68
2022-09-01T00:56:20.137Z,99298.86
2022-09-01T00:57:22.709Z,99300.92
2022-09-01T00:58:25.372Z,99303.39
2022-09-01T00:59:28.349Z,99304.02
2022-09-01T01:00:32.040Z,99303.58
2022-09-01T01:01:34.873Z,99303.39
2022-09-01T01:02:37.702Z,99302.55
2022-09-01T01:03:40.361Z,99297.81
2022-09-01T01:04:43.040Z,99294.15
2022-09-01T01:05:45.655Z,99302.13
2022-09-01T01:06:48.633Z,99300.09
2022-09-01T01:07:51.198Z,99303.78
2022-09-01T01:08:53.807Z,99298.84
2022-09-01T01:09:56.383Z,99298.02
2022-09-01T01:10:59.363Z,99300.69
2022-09-01T01:12:01.915Z,99291.44
2022-09-01T01:13:04.488Z,99288.58
2022-09-01T01:14:07.047Z,99291.85
2022-09-01T01:15:09.615Z,99289.81
2022-09-01T01:16:13.992Z,99298.44
2022-09-01T01:17:16.899Z,99299.24
2022-09-01T01:18:22.966Z,99290.41
2022-09-01T01:19:23.976Z,99289.39
2022-09-01T01:20:27.351Z,99293.49
2022-09-01T01:21:29.954Z,99289.99
2022-09-01T01:22:32.523Z,99284.66
2022-09-01T01:23:35.087Z,99293.69
2022-09-01T01:24:37.631Z,99287.10
2022-09-01T01:25:40.200Z,99287.52
2022-09-01T01:26:43.075Z,99286.91
2022-09-01T01:27:45.603Z,99287.55
2022-09-01T01:28:48.207Z,99292.25
2022-09-01T01:29:50.772Z,99284.66
2022-09-01T01:30:53.472Z,99284.23
2022-09-01T01:31:56.110Z,99292.88
2022-09-01T01:32:58.678Z,99284.64
2022-09-01T01:34:02.068Z,99286.11
2022-09-01T01:35:04.631Z,99286.11
2022-09-01T01:36:08.028Z,99284.64
2022-09-01T01:37:10.991Z,99286.52
2022-09-01T01:38:13.968Z,99286.30
2022-09-01T01:39:16.540Z,99281.56
2022-09-01T01:40:19.981Z,99282.80
2022-09-01T01:41:22.903Z,99281.16
2022-09-01T01:42:25.831Z,99279.94
2022-09-01T01:43:28.543Z,99279.72
2022-09-01T01:44:31.068Z,99278.09
2022-09-01T01:45:33.680Z,99283.00
2022-09-01T01:46:36.859Z,99277.46
2022-09-01T01:47:39.424Z,99287.13
2022-09-01T01:48:41.990Z,99286.91
2022-09-01T01:49:44.982Z,99292.86
2022-09-01T01:50:47.640Z,99284.02
2022-09-01T01:51:50.203Z,99293.47
2022-09-01T01:52:55.159Z,99293.05
2022-09-01T01:53:57.182Z,99286.47
2022-09-01T01:55:04.500Z,99289.77
2022-09-01T01:56:04.447Z,99286.09
2022-09-01T01:57:07.237Z,99298.80
2022-09-01T01:58:09.762Z,99294.89
2022-09-01T01:59:12.371Z,99295.11
2022-09-01T02:00:15.450Z,99293.05
2022-09-01T02:01:17.938Z,99294.70
2022-09-01T02:02:20.879Z,99299.17
2022-09-01T02:03:23.558Z,99293.03
2022-09-01T02:04:26.122Z,99292.63
2022-09-01T02:05:28.733Z,99297.14
2022-09-01T02:06:33.139Z,99289.73
2022-09-01T02:07:35.627Z,99300.22
2022-09-01T02:08:38.254Z,99296.91
2022-09-01T02:09:40.905Z,99308.23
2022-09-01T02:10:43.787Z,99300.83
2022-09-01T02:11:46.450Z,99303.48
2022-09-01T02:12:49.016Z,99300.17
2022-09-01T02:13:51.541Z,99299.70
2022-09-01T02:14:54.151Z,99297.08
2022-09-01T02:15:56.819Z,99303.84
2022-09-01T02:16:59.806Z,99304.86
2022-09-01T02:18:05.022Z,99301.53
2022-09-01T02:19:06.996Z,99309.13
2022-09-01T02:20:10.566Z,99307.66
2022-09-01T02:21:17.791Z,99304.20
2022-09-01T02:22:17.545Z,99301.94
2022-09-01T02:23:20.234Z,99305.83
2022-09-01T02:24:23.252Z,99304.81
2022-09-01T02:25:25.860Z,99301.31
2022-09-01T02:26:28.998Z,99297.45
2022-09-01T02:27:31.630Z,99305.83
2022-09-01T02:28:34.283Z,99301.13
2022-09-01T02:29:38.620Z,99306.87
2022-09-01T02:30:41.594Z,99298.87
2022-09-01T02:31:44.230Z,99297.80
2022-09-01T02:32:46.754Z,99300.69
2022-09-01T02:33:49.363Z,99302.72
2022-09-01T02:34:51.994Z,99298.38
2022-09-01T02:35:54.707Z,99297.53
2022-09-01T02:36:57.420Z,99300.44
2022-09-01T02:38:00.040Z,99302.46
2022-09-01T02:39:02.610Z,99303.05
2022-09-01T02:40:05.596Z,99301.42
2022-09-01T02:41:08.255Z,99311.05
2022-09-01T02:42:10.927Z,99306.36
2022-09-01T02:43:13.488Z,99313.35
2022-09-01T02:44:16.063Z,99310.20
2022-09-01T02:45:18.727Z,99308.34
2022-09-01T02:46:23.041Z,99316.95
2022-09-01T02:47:27.340Z,99314.87
2022-09-01T02:48:31.812Z,99310.14
2022-09-01T02:49:35.402Z,99309.99
2022-09-01T02:50:38.727Z,99318.61
2022-09-01T02:51:41.306Z,99316.36
2022-09-01T02:52:43.864Z,99317.80
2022-09-01T02:53:46.696Z,99317.38
2022-09-01T02:54:49.303Z,99314.52
2022-09-01T02:55:51.927Z,99317.59
2022-09-01T02:56:54.621Z,99320.66
2022-09-01T02:57:57.411Z,99322.87
2022-09-01T02:58:59.982Z,99320.44
2022-09-01T03:00:02.648Z,99326.02
2022-09-01T03:01:05.492Z,99326.00
2022-09-01T03:02:08.697Z,99324.77
2022-09-01T03:03:12.911Z,99325.19
2022-09-01T03:04:15.476Z,99328.47
2022-09-01T03:05:18.046Z,99327.67
2022-09-01T03:06:21.532Z,99325.78
2022-09-01T03:07:24.098Z,99329.88
2022-09-01T03:08:26.620Z,99329.86
2022-09-01T03:09:29.129Z,99326.00
2022-09-01T03:10:31.910Z,99332.95
2022-09-01T03:11:34.474Z,99327.44
2022-09-01T03:12:37.139Z,99327.41
2022-09-01T03:13:39.662Z,99331.52
2022-09-01T03:14:42.272Z,99334.61
2022-09-01T03:15:45.203Z,99328.02
2022-09-01T03:16:48.097Z,99324.52
2022-09-01T03:17:50.898Z,99331.75
2022-09-01T03:18:53.563Z,99325.59
2022-09-01T03:19:56.128Z,99328.88
2022-09-01T03:20:59.165Z,99332.77
2022-09-01T03:22:02.183Z,99329.09
2022-09-01T03:23:04.812Z,99322.69
2022-09-01T03:24:07.626Z,99330.87
2022-09-01T03:25:10.297Z,99333.94
2022-09-01T03:26:14.091Z,99333.75
2022-09-01T03:27:16.657Z,99332.06
2022-09-01T03:28:19.396Z,99327.77
2022-09-01T03:29:22.177Z,99332.73
2022-09-01T03:30:25.588Z,99338.69
2022-09-01T03:31:30.942Z,99336.66
2022-09-01T03:32:32.568Z,99340.77
2022-09-01T03:33:35.248Z,99332.19
2022-09-01T03:34:37.801Z,99330.95
2022-09-01T03:35:40.496Z,99330.95
2022-09-01T03:36:43.200Z,99334.63
2022-09-01T03:37:45.765Z,99337.52
2022-09-01T03:38:48.333Z,99338.34
2022-09-01T03:39:50.943Z,99336.48
2022-09-01T03:40:55.660Z,99337.09
2022-09-01T03:41:58.225Z,99341.17
2022-09-01T03:43:00.895Z,99341.53
2022-09-01T03:44:03.831Z,99344.66
2022-09-01T03:45:06.444Z,99344.66
2022-09-01T03:46:09.814Z,99348.53
2022-09-01T03:47:12.701Z,99349.11
2022-09-01T03:48:15.372Z,99347.09
2022-09-01T03:49:18.039Z,99347.27
2022-09-01T03:50:21.279Z,99354.26
2022-09-01T03:51:23.992Z,99345.67
2022-09-01T03:52:26.556Z,99346.53
2022-09-01T03:53:29.164Z,99349.45
2022-09-01T03:54:31.692Z,99350.70
2022-09-01T03:55:34.362Z,99351.04
2022-09-01T03:56:37.645Z,99352.70
2022-09-01T03:57:40.209Z,99359.31
2022-09-01T03:58:42.996Z,99349.59
2022-09-01T03:59:45.658Z,99359.07
2022-09-01T04:00:48.971Z,99357.26
2022-09-01T04:01:52.280Z,99355.15
2022-09-01T04:02:56.227Z,99351.28
2022-09-01T04:03:58.965Z,99352.11
2022-09-01T04:05:05.214Z,99359.72
2022-09-01T04:06:06.276Z,99359.72
2022-09-01T04:07:08.867Z,99358.43
2022-09-01T04:08:12.022Z,99367.05
2022-09-01T04:09:14.648Z,99362.11
2022-09-01T04:10:18.595Z,99359.02
2022-09-01T04:11:21.217Z,99366.98
2022-09-01T04:12:23.824Z,99357.54
2022-09-01T04:13:26.350Z,99359.59
2022-09-01T04:14:29.868Z,99362.08
2022-09-01T04:15:33.372Z,99357.17
2022-09-01T04:16:36.150Z,99356.34
2022-09-01T04:17:39.017Z,99364.20
2022-09-01T04:18:41.586Z,99362.14
2022-09-01T04:19:44.252Z,99357.20
2022-09-01T04:20:46.877Z,99356.80
2022-09-01T04:21:49.488Z,99357.88
2022-09-01T04:22:52.071Z,99358.09
2022-09-01T04:23:54.729Z,99361.37
2022-09-01T04:24:57.700Z,99361.98
2022-09-01T04:26:00.368Z,99357.05
2022-09-01T04:27:02.942Z,99354.16
2022-09-01T04:28:05.737Z,99357.88
2022-09-01T04:29:08.385Z,99353.98
2022-09-01T04:30:11.969Z,99371.64
2022-09-01T04:31:14.572Z,99358.52
2022-09-01T04:32:17.679Z,99356.09
2022-09-01T04:33:20.283Z,99360.44
2022-09-01T04:34:22.853Z,99361.09
2022-09-01T04:35:25.520Z,99354.16
2022-09-01T04:36:28.148Z,99366.44
2022-09-01T04:37:30.763Z,99360.96
2022-09-01T04:38:33.355Z,99360.79
2022-09-01T04:39:35.895Z,99369.05
2022-09-01T04:40:39.024Z,99367.17
2022-09-01T04:41:42.216Z,99362.47
2022-09-01T04:42:44.817Z,99365.23
2022-09-01T04:43:47.370Z,99359.84
2022-09-01T04:44:50.263Z,99365.61
2022-09-01T04:45:52.902Z,99363.81
2022-09-01T04:46:55.876Z,99368.80
2022-09-01T04:47:58.476Z,99374.33
2022-09-01T04:49:00.964Z,99364.25
2022-09-01T04:50:04.568Z,99366.55
2022-09-01T04:51:07.203Z,99367.17
2022-09-01T04:52:09.871Z,99362.88
2022-09-01T04:53:12.534Z,99363.05
2022-09-01T04:54:15.108Z,99361.21
2022-09-01T04:55:18.198Z,99360.98
2022-09-01T04:56:23.008Z,99363.66
2022-09-01T04:57:25.672Z,99355.45
2022-09-01T04:58:28.445Z,99365.50
2022-09-01T04:59:31.012Z,99357.73
2022-09-01T05:00:34.970Z,99357.12
2022-09-01T05:01:37.891Z,99364.72
2022-09-01T05:02:40.864Z,99364.97
2022-09-01T05:03:43.430Z,99363.13
2022-09-01T05:04:46.205Z,99374.05
2022-09-01T05:05:48.729Z,99364.98
2022-09-01T05:06:51.852Z,99366.23
2022-09-01T05:07:54.381Z,99362.53
2022-09-01T05:08:56.951Z,99362.54
2022-09-01T05:10:01.474Z,99367.92
2022-09-01T05:11:04.164Z,99364.61
2022-09-01T05:12:06.836Z,99367.47
2022-09-01T05:13:09.508Z,99365.03
2022-09-01T05:14:12.067Z,99364.19
2022-09-01T05:15:14.704Z,99367.88
2022-09-01T05:16:21.508Z,99355.77
2022-09-01T05:17:22.690Z,99367.92
2022-09-01T05:18:25.305Z,99360.51
2022-09-01T05:19:27.926Z,99363.41
2022-09-01T05:20:31.455Z,99363.21
2022-09-01T05:21:34.440Z,99361.97
2022-09-01T05:22:37.417Z,99357.86
2022-09-01T05:23:40.080Z,99362.16
2022-09-01T05:24:42.851Z,99373.45
2022-09-01T05:25:45.441Z,99364.23
2022-09-01T05:26:48.401Z,99362.38
2022-09-01T05:27:51.063Z,99369.20
2022-09-01T05:28:53.637Z,99361.18
2022-09-01T05:29:56.300Z,99362.20
2022-09-01T05:30:59.066Z,99370.42
2022-09-01T05:32:02.055Z,99371.23
2022-09-01T05:33:04.745Z,99364.25
2022-09-01T05:34:07.384Z,99373.28
2022-09-01T05:35:09.952Z,99371.83
2022-09-01T05:36:13.348Z,99370.20
2022-09-01T05:37:16.016Z,99363.83
2022-09-01T05:38:19.150Z,99375.37
2022-09-01T05:39:21.964Z,99371.23
2022-09-01T05:40:24.979Z,99373.31
2022-09-01T05:41:27.915Z,99371.23
2022-09-01T05:42:30.438Z,99372.29
2022-09-01T05:43:33.559Z,99374.97
2022-09-01T05:44:36.130Z,99378.65
2022-09-01T05:45:56.498Z,99373.72
2022-09-01T05:46:43.735Z,99372.89
2022-09-01T05:47:46.390Z,99372.27
2022-09-01T05:48:48.951Z,99374.95
2022-09-01T05:49:51.434Z,99376.41
2022-09-01T05:50:54.394Z,99373.11
2022-09-01T05:51:56.959Z,99382.15
2022-09-01T05:52:59.530Z,99382.15
2022-09-01T05:54:02.107Z,99380.73
2022-09-01T05:55:04.666Z,99389.56
2022-09-01T05:56:07.738Z,99381.73
2022-09-01T05:57:32.630Z,99383.34
2022-09-01T05:58:14.715Z,99384.14
2022-09-01T05:59:25.805Z,99376.52
2022-09-01T06:00:23.537Z,99378.37
2022-09-01T06:01:26.618Z,99382.61
2022-09-01T06:02:29.463Z,99377.55
2022-09-01T06:03:32.283Z,99382.83
2022-09-01T06:04:36.629Z,99383.61
2022-09-01T06:05:39.240Z,99390.66
2022-09-01T06:07:01.782Z,99390.14
2022-09-01T06:07:46.934Z,99381.85
2022-09-01T06:08:49.603Z,99382.31
2022-09-01T06:09:52.169Z,99386.02
2022-09-01T06:10:55.352Z,99381.02
2022-09-01T06:11:58.185Z,99377.19
2022-09-01T06:13:00.892Z,99384.72
2022-09-01T06:14:03.772Z,99380.13
2022-09-01T06:15:06.255Z,99381.27
2022-09-01T06:16:09.766Z,99376.93
2022-09-01T06:17:12.349Z,99379.30
2022-09-01T06:18:14.962Z,99378.19
2022-09-01T06:19:17.524Z,99375.89
2022-09-01T06:20:21.728Z,99380.56
2022-09-01T06:21:24.298Z,99370.31
2022-09-01T06:22:27.072Z,99367.16
2022-09-01T06:23:30.002Z,99365.34
2022-09-01T06:24:32.610Z,99365.80
2022-09-01T06:25:35.183Z,99366.15
2022-09-01T06:26:38.360Z,99368.95
2022-09-01T06:27:41.037Z,99370.34
2022-09-01T06:28:43.657Z,99368.95
2022-09-01T06:29:46.467Z,99368.36
2022-09-01T06:30:49.245Z,99369.18
2022-09-01T06:31:52.080Z,99372.36
2022-09-01T06:32:55.000Z,99378.00
2022-09-01T06:33:57.558Z,99365.64
2022-09-01T06:35:00.286Z,99376.69
2022-09-01T06:36:03.306Z,99370.91
2022-09-01T06:37:05.867Z,99375.31
2022-09-01T06:38:08.387Z,99366.78
2022-09-01T06:39:12.543Z,99362.13
2022-09-01T06:40:16.182Z,99363.23
2022-09-01T06:41:18.798Z,99375.64
2022-09-01T06:42:21.776Z,99364.53
2022-09-01T06:43:24.451Z,99366.86
2022-09-01T06:44:27.022Z,99369.78
2022-09-01T06:45:29.687Z,99369.66
2022-09-01T06:46:32.509Z,99368.83
2022-09-01T06:47:35.440Z,99369.32
2022-09-01T06:48:38.097Z,99365.16
2022-09-01T06:49:40.665Z,99370.44
2022-09-01T06:51:47.803Z,99375.16
2022-09-01T06:53:54.952Z,99372.12
2022-09-01T06:54:57.657Z,99379.48
2022-09-01T06:56:01.494Z,99369.65
2022-09-01T06:58:08.574Z,99372.65
2022-09-01T06:59:11.559Z,99379.17
2022-09-01T07:00:15.138Z,99370.88
2022-09-01T07:01:17.954Z,99378.13
2022-09-01T07:02:26.550Z,99379.12
2022-09-01T07:03:25.300Z,99377.20
2022-09-01T07:04:27.967Z,99371.64
2022-09-01T07:08:05.361Z,99379.46
2022-09-01T07:10:05.861Z,99382.92
2022-09-01T07:13:05.978Z,99382.28
2022-09-01T07:14:22.056Z,99379.03
2022-09-01T07:16:35.469Z,99379.33
2022-09-01T07:17:23.609Z,99376.83
2022-09-01T07:18:26.929Z,99386.21
2022-09-01T07:20:35.361Z,99383.31
2022-09-01T07:21:41.674Z,99384.69
2022-09-01T07:24:07.742Z,99382.27
2022-09-01T07:25:11.538Z,99379.95
2022-09-01T07:26:04.352Z,99377.98
2022-09-01T07:27:09.325Z,99379.46
2022-09-01T07:28:06.631Z,99373.28
2022-09-01T07:29:09.195Z,99379.20
2022-09-01T07:30:13.505Z,99382.13
2022-09-01T07:35:34.732Z,99371.96
2022-09-01T07:37:17.338Z,99372.17
2022-09-01T07:38:49.767Z,99373.96
2022-09-01T07:39:51.784Z,99364.70
2022-09-01T07:42:55.652Z,99372.54
2022-09-01T07:44:08.171Z,99363.77
2022-09-01T07:45:27.098Z,99367.20
2022-09-01T07:47:52.478Z,99362.91
2022-09-01T07:49:33.810Z,99351.84
2022-09-01T07:50:41.361Z,99358.63
2022-09-01T07:51:39.237Z,99347.91
2022-09-01T07:52:42.124Z,99352.05
2022-09-01T07:53:44.788Z,99352.63
2022-09-01T07:54:47.363Z,99347.20
2022-09-01T07:55:49.969Z,99342.95
2022-09-01T07:56:52.754Z,99353.27
2022-09-01T07:57:56.077Z,99341.98
2022-09-01T07:58:58.556Z,99336.58
2022-09-01T08:00:01.151Z,99339.72
2022-09-01T08:01:03.680Z,99338.13
2022-09-01T08:02:06.241Z,99336.04
2022-09-01T08:03:09.506Z,99346.96
2022-09-01T08:04:12.370Z,99335.52
2022-09-01T08:05:14.973Z,99340.45
2022-09-01T08:06:18.401Z,99343.46
2022-09-01T08:07:21.436Z,99339.38
2022-09-01T08:08:29.415Z,99336.50
2022-09-01T08:09:37.174Z,99339.33
2022-09-01T08:10:36.695Z,99338.23
2022-09-01T08:12:42.564Z,99336.14
2022-09-01T08:13:51.945Z,99341.75
2022-09-01T08:14:50.057Z,99337.25
2022-09-01T08:16:16.809Z,99341.77
2022-09-01T08:17:00.133Z,99330.48
2022-09-01T08:18:04.978Z,99335.67
2022-09-01T08:19:16.405Z,99325.43
2022-09-01T08:20:14.038Z,99330.11
2022-09-01T08:21:16.924Z,99334.46
2022-09-01T08:22:19.906Z,99329.06
2022-09-01T08:23:22.576Z,99322.27
2022-09-01T08:24:25.235Z,99317.92
2022-09-01T08:25:27.765Z,99330.15
2022-09-01T08:26:30.886Z,99317.65
2022-09-01T08:27:33.419Z,99329.31
2022-09-01T08:28:36.019Z,99327.16
2022-09-01T08:29:38.585Z,99325.80
2022-09-01T08:30:41.559Z,99320.38
2022-09-01T08:31:46.137Z,99326.59
2022-09-01T08:32:49.052Z,99328.23
2022-09-01T08:33:51.676Z,99322.80
2022-09-01T08:34:54.287Z,99330.39
2022-09-01T08:35:56.863Z,99332.56
2022-09-01T08:36:59.760Z,99326.88
2022-09-01T08:38:02.411Z,99335.05
2022-09-01T08:39:05.622Z,99326.91
2022-09-01T08:40:09.814Z,99313.56
2022-09-01T08:41:12.554Z,99311.37
2022-09-01T08:42:15.124Z,99314.64
2022-09-01T08:43:17.932Z,99318.44
2022-09-01T08:44:20.864Z,99315.42
2022-09-01T08:45:23.432Z,99314.37
2022-09-01T08:46:27.486Z,99317.88
2022-09-01T08:47:39.506Z,99321.16
2022-09-01T08:49:23.680Z,99311.37
2022-09-01T08:49:46.673Z,99317.36
2022-09-01T08:50:44.261Z,99307.28
2022-09-01T08:51:49.530Z,99303.73
2022-09-01T08:52:53.038Z,99309.16
2022-09-01T08:53:55.906Z,99306.16
2022-09-01T08:54:58.527Z,99313.52
2022-09-01T08:56:01.085Z,99318.41
2022-09-01T08:57:03.752Z,99313.27
2022-09-01T08:58:06.848Z,99305.89
2022-09-01T08:59:09.429Z,99308.60
2022-09-01T09:00:12.728Z,99317.02
2022-09-01T09:01:15.719Z,99312.10
2022-09-01T09:02:20.308Z,99305.33
2022-09-01T09:03:23.047Z,99310.25
2022-09-01T09:04:25.612Z,99311.88
2022-09-01T09:05:28.280Z,99320.55
2022-09-01T09:06:31.360Z,99320.03
2022-09-01T09:07:33.961Z,99321.94
2022-09-01T09:08:36.556Z,99315.46
2022-09-01T09:09:39.161Z,99313.85
2022-09-01T09:10:42.076Z,99304.36
2022-09-01T09:11:44.604Z,99308.68
2022-09-01T09:12:50.221Z,99310.31
2022-09-01T09:13:51.683Z,99318.73
2022-09-01T09:14:54.250Z,99316.25
2022-09-01T09:16:07.410Z,99315.13
2022-09-01T09:17:01.736Z,99307.75
2022-09-01T09:18:04.412Z,99313.39
2022-09-01T09:19:08.922Z,99317.13
2022-09-01T09:20:12.470Z,99316.28
2022-09-01T09:21:15.138Z,99316.31
2022-09-01T09:22:18.200Z,99320.92
2022-09-01T09:23:21.678Z,99317.11
2022-09-01T09:24:24.725Z,99316.22
2022-09-01T09:25:29.238Z,99307.11
2022-09-01T09:26:47.840Z,99310.27
2022-09-01T09:27:37.040Z,99308.55
2022-09-01T09:28:39.733Z,99315.02
2022-09-01T09:29:42.679Z,99314.48
2022-09-01T09:30:48.614Z,99317.23
2022-09-01T09:31:51.496Z,99305.80
2022-09-01T09:33:59.901Z,99321.68
2022-09-01T09:35:03.050Z,99318.60
2022-09-01T09:36:06.027Z,99318.43
2022-09-01T09:37:08.632Z,99322.95
2022-09-01T09:38:11.199Z,99318.41
2022-09-01T09:39:13.749Z,99315.72
2022-09-01T09:40:18.198Z,99322.27
2022-09-01T09:41:26.947Z,99316.81
2022-09-01T09:42:29.865Z,99314.41
2022-09-01T09:43:30.587Z,99317.38
2022-09-01T09:44:33.166Z,99316.30
2022-09-01T09:45:35.824Z,99308.14
2022-09-01T09:46:38.674Z,99306.81
2022-09-01T09:47:45.147Z,99309.26
2022-09-01T09:48:46.083Z,99311.66
2022-09-01T09:49:49.026Z,99305.33
2022-09-01T09:50:52.652Z,99311.25
2022-09-01T09:51:55.544Z,99314.20
2022-09-01T09:52:58.220Z,99315.98
2022-09-01T09:54:00.969Z,99316.73
2022-09-01T09:55:04.641Z,99316.97
2022-09-01T09:56:07.840Z,99316.47
2022-09-01T09:57:10.394Z,99310.03
2022-09-01T09:58:13.004Z,99308.97
2022-09-01T09:59:15.546Z,99309.78
2022-09-01T10:00:20.710Z,99304.56
2022-09-01T10:01:24.519Z,99306.55
2022-09-01T10:02:28.247Z,99307.36
2022-09-01T10:03:31.132Z,99306.56
2022-09-01T10:04:34.077Z,99297.39
2022-09-01T10:05:36.678Z,99299.61
2022-09-01T10:06:39.492Z,99299.94
2022-09-01T10:07:42.016Z,99309.26
2022-09-01T10:08:44.537Z,99314.95
2022-09-01T10:09:48.068Z,99308.35
2022-09-01T10:10:57.330Z,99317.86
2022-09-01T10:11:55.665Z,99308.13
2022-09-01T10:13:01.888Z,99308.70
2022-09-01T10:14:04.439Z,99304.34
2022-09-01T10:15:12.416Z,99305.16
2022-09-01T10:16:11.764Z,99308.13
2022-09-01T10:17:15.299Z,99306.79
2022-09-01T10:18:28.401Z,99304.09
2022-09-01T10:19:23.048Z,99302.72
2022-09-01T10:20:27.059Z,99307.59
2022-09-01T10:21:29.691Z,99306.48
2022-09-01T10:22:32.799Z,99302.17
2022-09-01T10:23:35.979Z,99305.97
2022-09-01T10:24:44.659Z,99305.44
2022-09-01T10:25:44.494Z,99298.91
2022-09-01T10:26:47.466Z,99312.50
2022-09-01T10:27:49.994Z,99305.70
2022-09-01T10:28:52.602Z,99308.17
2022-09-01T10:30:18.122Z,99308.69
2022-09-01T10:31:00.245Z,99301.36
2022-09-01T10:32:30.568Z,99305.98
2022-09-01T10:33:15.877Z,99299.45
2022-09-01T10:34:12.465Z,99301.09
2022-09-01T10:35:18.242Z,99304.06
2022-09-01T10:36:24.263Z,99303.52
2022-09-01T10:37:27.373Z,99304.30
2022-09-01T10:38:29.223Z,99294.50
2022-09-01T10:39:34.466Z,99300.19
2022-09-01T10:40:38.136Z,99295.55
2022-09-01T10:41:41.632Z,99302.57
2022-09-01T10:42:45.320Z,99302.52
2022-09-01T10:43:48.774Z,99297.89
2022-09-01T10:44:51.484Z,99297.31
2022-09-01T10:46:05.419Z,99302.45
2022-09-01T10:47:00.214Z,99295.99
2022-09-01T10:48:03.177Z,99297.64
2022-09-01T10:49:07.253Z,99303.90
2022-09-01T10:50:11.271Z,99295.69
2022-09-01T10:51:18.536Z,99297.91
2022-09-01T10:52:18.770Z,99297.40
2022-09-01T10:53:26.956Z,99291.72
2022-09-01T10:54:26.675Z,99293.37
2022-09-01T10:55:29.504Z,99286.34
2022-09-01T10:56:36.630Z,99289.92
2022-09-01T10:57:42.226Z,99296.20
2022-09-01T10:59:56.419Z,99291.30
2022-09-01T11:02:23.029Z,99292.94
2022-09-01T11:03:00.404Z,99288.61
2022-09-01T11:04:03.267Z,99289.11
2022-09-01T11:05:07.143Z,99285.27
2022-09-01T11:06:12.586Z,99288.28
2022-09-01T11:07:15.109Z,99281.52
2022-09-01T11:08:17.753Z,99288.28
2022-09-01T11:09:22.170Z,99284.74
2022-09-01T11:10:32.010Z,99282.80
2022-09-01T11:11:30.402Z,99279.77
2022-09-01T11:12:33.036Z,99284.92
2022-09-01T11:13:35.559Z,99284.67
2022-09-01T11:14:38.478Z,99283.59
2022-09-01T11:15:41.195Z,99287.84
2022-09-01T11:16:49.150Z,99285.26
2022-09-01T11:17:48.392Z,99280.52
2022-09-01T11:18:50.998Z,99293.33
2022-09-01T11:19:55.503Z,99280.02
2022-09-01T11:20:58.670Z,99270.61
2022-09-01T11:22:02.549Z,99280.47
2022-09-01T11:23:05.371Z,99277.11
2022-09-01T11:24:07.887Z,99284.70
2022-09-01T11:25:11.654Z,99276.97
2022-09-01T11:26:19.726Z,99281.48
2022-09-01T11:27:20.439Z,99288.66
2022-09-01T11:28:23.012Z,99276.50
2022-09-01T11:29:25.638Z,99276.39
2022-09-01T11:30:28.609Z,99287.88
2022-09-01T11:31:31.302Z,99283.33
2022-09-01T11:32:33.997Z,99283.54
2022-09-01T11:33:36.662Z,99286.85
2022-09-01T11:34:39.227Z,99285.89
2022-09-01T11:35:42.307Z,99280.22
2022-09-01T11:36:45.183Z,99285.47
2022-09-01T11:37:47.851Z,99282.06
2022-09-01T11:38:50.658Z,99285.30
2022-09-01T11:39:53.294Z,99286.64
2022-09-01T11:40:56.359Z,99282.77
2022-09-01T11:42:03.573Z,99292.17
2022-09-01T11:43:03.753Z,99287.77
2022-09-01T11:44:06.328Z,99281.83
2022-09-01T11:45:08.882Z,99272.60
2022-09-01T11:46:12.091Z,99282.05
2022-09-01T11:47:14.767Z,99278.77
2022-09-01T11:48:17.324Z,99275.05
2022-09-01T11:49:19.891Z,99278.98
2022-09-01T11:50:23.364Z,99278.89
2022-09-01T11:51:26.030Z,99274.27
2022-09-01T11:52:28.976Z,99275.08
2022-09-01T11:53:31.599Z,99277.22
2022-09-01T11:54:34.243Z,99275.41
2022-09-01T11:55:36.838Z,99279.44
2022-09-01T11:56:39.683Z,99268.00
2022-09-01T11:57:42.252Z,99277.32
2022-09-01T11:58:44.823Z,99272.42
2022-09-01T11:59:47.391Z,99268.63
2022-09-01T12:00:50.367Z,99268.14
2022-09-01T12:01:53.419Z,99268.72
2022-09-01T12:02:56.385Z,99266.30
2022-09-01T12:03:59.291Z,99268.72
2022-09-01T12:05:01.859Z,99266.91
2022-09-01T12:06:04.633Z,99269.87
2022-09-01T12:07:08.003Z,99265.48
2022-09-01T12:08:11.711Z,99266.57
2022-09-01T12:09:14.279Z,99268.20
2022-09-01T12:10:18.647Z,99264.62
2022-09-01T12:11:21.355Z,99272.53
2022-09-01T12:12:24.031Z,99268.72
2022-09-01T12:13:26.599Z,99280.67
2022-09-01T12:14:43.407Z,99276.89
2022-09-01T12:15:33.581Z,99271.46
2022-09-01T12:16:36.607Z,99271.94
2022-09-01T12:17:39.219Z,99271.83
2022-09-01T12:18:41.782Z,99259.11
2022-09-01T12:19:44.255Z,99273.41
2022-09-01T12:21:51.888Z,99267.11
2022-09-01T12:22:54.719Z,99264.94
2022-09-01T12:23:57.391Z,99265.34
2022-09-01T12:25:00.060Z,99267.88
2022-09-01T12:26:03.032Z,99260.38
2022-09-01T12:27:05.599Z,99266.21
2022-09-01T12:28:08.268Z,99272.52
2022-09-01T12:29:12.784Z,99268.74
2022-09-01T12:30:16.462Z,99276.38
2022-09-01T12:31:19.174Z,99267.14
2022-09-01T12:32:21.885Z,99264.91
2022-09-01T12:33:24.872Z,99267.07
2022-09-01T12:34:27.716Z,99265.73
2022-09-01T12:35:30.332Z,99267.16
2022-09-01T12:36:34.099Z,99268.28
2022-09-01T12:37:36.772Z,99266.98
2022-09-01T12:38:39.373Z,99264.52
2022-09-01T12:39:42.033Z,99263.13
2022-09-01T12:40:45.303Z,99258.68
2022-09-01T12:41:48.596Z,99269.16
2022-09-01T12:42:51.528Z,99260.59
2022-09-01T12:43:54.957Z,99267.73
2022-09-01T12:44:58.759Z,99254.34
2022-09-01T12:46:02.910Z,99257.61
2022-09-01T12:47:05.839Z,99257.78
2022-09-01T12:48:08.703Z,99268.67